sensor_id;sensor_type;location;lat;lon;timestamp;P1;durP1;ratioP1;P2;durP2;ratioP2
68208;SDS011;55662;47.488;19.074;2022-07-03T00:08:30;8.68;;;5.47;;
68208;SDS011;55662;47.488;19.074;2022-07-03T00:28:33;9.85;;;5.10;;
68208;SDS011;55662;47.488;19.074;2022-07-03T00:48:37;7.15;;;4.87;;
68208;SDS011;55662;47.488;19.074;2022-07-03T01:08:43;8.47;;;5.07;;
68208;SDS011;55662;47.488;19.074;2022-07-03T01:28:51;8.68;;;5.40;;
68208;SDS011;55662;47.488;19.074;2022-07-03T01:48:54;7.80;;;5.07;;
68208;SDS011;55662;47.488;19.074;2022-07-03T02:09:08;8.00;;;5.20;;
68208;SDS011;55662;47.488;19.074;2022-07-03T02:29:43;8.35;;;5.55;;
68208;SDS011;55662;47.488;19.074;2022-07-03T02:50:08;9.55;;;5.47;;
68208;SDS011;55662;47.488;19.074;2022-07-03T03:10:14;9.87;;;6.20;;
68208;SDS011;55662;47.488;19.074;2022-07-03T03:30:17;10.48;;;6.35;;
68208;SDS011;55662;47.488;19.074;2022-07-03T03:50:21;10.13;;;6.30;;
68208;SDS011;55662;47.488;19.074;2022-07-03T04:10:25;11.73;;;6.35;;
68208;SDS011;55662;47.488;19.074;2022-07-03T04:30:28;10.17;;;5.77;;
68208;SDS011;55662;47.488;19.074;2022-07-03T04:50:32;11.50;;;6.43;;
68208;SDS011;55662;47.488;19.074;2022-07-03T05:10:35;10.05;;;6.85;;
68208;SDS011;55662;47.488;19.074;2022-07-03T05:30:39;9.17;;;5.93;;
68208;SDS011;55662;47.488;19.074;2022-07-03T05:50:42;11.60;;;6.22;;
68208;SDS011;55662;47.488;19.074;2022-07-03T06:10:46;9.65;;;5.85;;
68208;SDS011;55662;47.488;19.074;2022-07-03T06:30:50;10.10;;;6.80;;
68208;SDS011;55662;47.488;19.074;2022-07-03T06:50:53;12.27;;;6.95;;
68208;SDS011;55662;47.488;19.074;2022-07-03T07:10:56;9.93;;;6.47;;
68208;SDS011;55662;47.488;19.074;2022-07-03T07:31:00;9.32;;;6.68;;
68208;SDS011;55662;47.488;19.074;2022-07-03T07:51:04;9.47;;;6.53;;
68208;SDS011;55662;47.488;19.074;2022-07-03T08:11:07;10.43;;;7.30;;
68208;SDS011;55662;47.488;19.074;2022-07-03T08:31:11;9.55;;;7.37;;
68208;SDS011;55662;47.488;19.074;2022-07-03T08:51:14;10.60;;;9.07;;
68208;SDS011;55662;47.488;19.074;2022-07-03T09:11:18;10.32;;;8.07;;
68208;SDS011;55662;47.488;19.074;2022-07-03T09:31:23;9.32;;;8.23;;
68208;SDS011;55662;47.488;19.074;2022-07-03T09:51:29;9.65;;;8.75;;
68208;SDS011;55662;47.488;19.074;2022-07-03T10:11:33;8.57;;;7.57;;
68208;SDS011;55662;47.488;19.074;2022-07-03T10:31:37;9.13;;;6.93;;
68208;SDS011;55662;47.488;19.074;2022-07-03T11:12:05;8.27;;;5.75;;
68208;SDS011;55662;47.488;19.074;2022-07-03T11:52:52;7.00;;;5.80;;
68208;SDS011;55662;47.488;19.074;2022-07-03T12:12:56;7.85;;;6.28;;
68208;SDS011;55662;47.488;19.074;2022-07-03T12:32:59;7.65;;;6.00;;
68208;SDS011;55662;47.488;19.074;2022-07-03T12:53:03;8.15;;;5.55;;
68208;SDS011;55662;47.488;19.074;2022-07-03T13:13:06;7.13;;;4.10;;
68208;SDS011;55662;47.488;19.074;2022-07-03T13:33:11;5.85;;;4.32;;
68208;SDS011;55662;47.488;19.074;2022-07-03T13:53:14;7.43;;;4.78;;
68208;SDS011;55662;47.488;19.074;2022-07-03T14:13:18;6.68;;;4.47;;
68208;SDS011;55662;47.488;19.074;2022-07-03T14:33:21;5.83;;;3.83;;
68208;SDS011;55662;47.488;19.074;2022-07-03T14:53:25;6.37;;;4.50;;
68208;SDS011;55662;47.488;19.074;2022-07-03T15:13:28;4.90;;;3.50;;
68208;SDS011;55662;47.488;19.074;2022-07-03T15:33:33;9.00;;;4.50;;
68208;SDS011;55662;47.488;19.074;2022-07-03T15:53:37;7.90;;;3.80;;
68208;SDS011;55662;47.488;19.074;2022-07-03T16:13:41;11.17;;;4.23;;
68208;SDS011;55662;47.488;19.074;2022-07-03T16:33:49;6.80;;;4.07;;
68208;SDS011;55662;47.488;19.074;2022-07-03T16:53:55;4.90;;;3.25;;
68208;SDS011;55662;47.488;19.074;2022-07-03T17:13:59;6.05;;;4.10;;
68208;SDS011;55662;47.488;19.074;2022-07-03T17:34:03;7.70;;;4.67;;
68208;SDS011;55662;47.488;19.074;2022-07-03T17:54:07;4.97;;;3.00;;
68208;SDS011;55662;47.488;19.074;2022-07-03T18:14:15;7.82;;;3.83;;
68208;SDS011;55662;47.488;19.074;2022-07-03T18:34:22;5.27;;;4.00;;
68208;SDS011;55662;47.488;19.074;2022-07-03T19:14:52;8.55;;;4.60;;
68208;SDS011;55662;47.488;19.074;2022-07-03T19:34:59;5.82;;;4.90;;
68208;SDS011;55662;47.488;19.074;2022-07-03T19:55:03;5.18;;;3.70;;
68208;SDS011;55662;47.488;19.074;2022-07-03T20:15:07;6.53;;;4.23;;
68208;SDS011;55662;47.488;19.074;2022-07-03T20:35:10;7.87;;;4.18;;
68208;SDS011;55662;47.488;19.074;2022-07-03T20:55:16;6.65;;;4.30;;
68208;SDS011;55662;47.488;19.074;2022-07-03T21:15:19;9.90;;;4.68;;
68208;SDS011;55662;47.488;19.074;2022-07-03T21:35:22;5.50;;;4.67;;
68208;SDS011;55662;47.488;19.074;2022-07-03T21:55:26;5.90;;;3.53;;
68208;SDS011;55662;47.488;19.074;2022-07-03T22:15:29;4.90;;;2.97;;
68208;SDS011;55662;47.488;19.074;2022-07-03T22:35:36;4.80;;;3.60;;
68208;SDS011;55662;47.488;19.074;2022-07-03T22:55:40;5.22;;;4.00;;
68208;SDS011;55662;47.488;19.074;2022-07-03T23:15:46;5.10;;;3.65;;
68208;SDS011;55662;47.488;19.074;2022-07-03T23:35:51;5.15;;;3.20;;
68208;SDS011;55662;47.488;19.074;2022-07-03T23:56:05;4.83;;;3.40;;
